sensor_id;sensor_type;location;lat;lon;timestamp;P1;durP1;ratioP1;P2;durP2;ratioP2
53674;SDS011;39574;50.534;8.500;2024-01-15T00:04:36;24.2;;;10.8;;
53674;SDS011;39574;50.534;8.500;2024-01-15T00:09:34;23.5;;;10.7;;
53674;SDS011;39574;50.534;8.500;2024-01-15T00:14:33;23.4;;;10.6;;
53674;SDS011;39574;50.534;8.500;2024-01-15T00:19:33;23.7;;;10.6;;
53674;SDS011;39574;50.534;8.500;2024-01-15T00:24:30;22.5;;;10.4;;
53674;SDS011;39574;50.534;8.500;2024-01-15T00:29:28;24.5;;;10.8;;
53674;SDS011;39574;50.534;8.500;2024-01-15T00:34:27;24.2;;;10.3;;
53674;SDS011;39574;50.534;8.500;2024-01-15T00:39:25;23.2;;;10.0;;
53674;SDS011;39574;50.534;8.500;2024-01-15T00:44:24;23.0;;;10.0;;
53674;SDS011;39574;50.534;8.500;2024-01-15T00:49:22;23.1;;;9.6;;
53674;SDS011;39574;50.534;8.500;2024-01-15T00:54:21;23.1;;;9.6;;
53674;SDS011;39574;50.534;8.500;2024-01-15T00:59:19;22.7;;;9.7;;
53674;SDS011;39574;50.534;8.500;2024-01-15T01:04:18;22.7;;;9.6;;
53674;SDS011;39574;50.534;8.500;2024-01-15T01:09:17;22.4;;;9.5;;
53674;SDS011;39574;50.534;8.500;2024-01-15T01:14:15;24.1;;;10.3;;
53674;SDS011;39574;50.534;8.500;2024-01-15T01:19:14;23.2;;;10.2;;
53674;SDS011;39574;50.534;8.500;2024-01-15T01:24:13;22.6;;;10.2;;
53674;SDS011;39574;50.534;8.500;2024-01-15T01:34:10;23.1;;;10.2;;
53674;SDS011;39574;50.534;8.500;2024-01-15T01:39:08;23.7;;;10.2;;
53674;SDS011;39574;50.534;8.500;2024-01-15T01:49:06;25.9;;;10.6;;
53674;SDS011;39574;50.534;8.500;2024-01-15T01:54:05;27.0;;;11.1;;
53674;SDS011;39574;50.534;8.500;2024-01-15T01:59:03;27.1;;;11.3;;
53674;SDS011;39574;50.534;8.500;2024-01-15T02:04:02;27.6;;;11.8;;
53674;SDS011;39574;50.534;8.500;2024-01-15T02:09:00;27.5;;;11.6;;
53674;SDS011;39574;50.534;8.500;2024-01-15T02:13:58;26.8;;;11.5;;
53674;SDS011;39574;50.534;8.500;2024-01-15T02:19:00;28.7;;;11.8;;
53674;SDS011;39574;50.534;8.500;2024-01-15T02:23:55;28.7;;;11.5;;
53674;SDS011;39574;50.534;8.500;2024-01-15T02:28:54;28.8;;;12.1;;
53674;SDS011;39574;50.534;8.500;2024-01-15T02:33:52;28.9;;;12.0;;
53674;SDS011;39574;50.534;8.500;2024-01-15T02:38:51;28.8;;;11.6;;
53674;SDS011;39574;50.534;8.500;2024-01-15T02:43:50;27.6;;;11.2;;
53674;SDS011;39574;50.534;8.500;2024-01-15T02:48:52;26.9;;;11.0;;
53674;SDS011;39574;50.534;8.500;2024-01-15T02:53:48;26.4;;;11.1;;
53674;SDS011;39574;50.534;8.500;2024-01-15T02:58:45;27.6;;;11.3;;
53674;SDS011;39574;50.534;8.500;2024-01-15T03:03:44;28.4;;;11.8;;
53674;SDS011;39574;50.534;8.500;2024-01-15T03:08:43;28.4;;;11.9;;
53674;SDS011;39574;50.534;8.500;2024-01-15T03:13:41;27.4;;;11.7;;
53674;SDS011;39574;50.534;8.500;2024-01-15T03:18:40;27.6;;;11.6;;
53674;SDS011;39574;50.534;8.500;2024-01-15T03:23:38;27.4;;;11.4;;
53674;SDS011;39574;50.534;8.500;2024-01-15T03:28:37;27.6;;;11.3;;
53674;SDS011;39574;50.534;8.500;2024-01-15T03:33:35;27.6;;;11.5;;
53674;SDS011;39574;50.534;8.500;2024-01-15T03:38:34;27.6;;;11.7;;
53674;SDS011;39574;50.534;8.500;2024-01-15T03:43:33;28.3;;;11.9;;
53674;SDS011;39574;50.534;8.500;2024-01-15T03:48:31;27.5;;;11.5;;
53674;SDS011;39574;50.534;8.500;2024-01-15T03:53:30;29.4;;;12.0;;
53674;SDS011;39574;50.534;8.500;2024-01-15T03:58:28;29.9;;;12.5;;
53674;SDS011;39574;50.534;8.500;2024-01-15T04:03:31;28.8;;;12.4;;
53674;SDS011;39574;50.534;8.500;2024-01-15T04:08:25;28.8;;;12.5;;
53674;SDS011;39574;50.534;8.500;2024-01-15T04:13:24;29.2;;;12.3;;
53674;SDS011;39574;50.534;8.500;2024-01-15T04:18:22;28.6;;;12.1;;
53674;SDS011;39574;50.534;8.500;2024-01-15T04:23:21;29.7;;;12.2;;
53674;SDS011;39574;50.534;8.500;2024-01-15T04:28:20;30.2;;;12.2;;
53674;SDS011;39574;50.534;8.500;2024-01-15T04:33:18;29.0;;;12.1;;
53674;SDS011;39574;50.534;8.500;2024-01-15T04:38:17;29.2;;;12.2;;
53674;SDS011;39574;50.534;8.500;2024-01-15T04:43:15;29.3;;;12.2;;
53674;SDS011;39574;50.534;8.500;2024-01-15T04:48:14;28.7;;;12.5;;
53674;SDS011;39574;50.534;8.500;2024-01-15T04:53:12;29.2;;;13.1;;
53674;SDS011;39574;50.534;8.500;2024-01-15T04:58:11;30.0;;;13.0;;
53674;SDS011;39574;50.534;8.500;2024-01-15T05:03:10;29.7;;;12.6;;
53674;SDS011;39574;50.534;8.500;2024-01-15T05:08:08;30.9;;;12.5;;
53674;SDS011;39574;50.534;8.500;2024-01-15T05:13:06;30.3;;;12.0;;
53674;SDS011;39574;50.534;8.500;2024-01-15T05:18:05;31.8;;;12.7;;
53674;SDS011;39574;50.534;8.500;2024-01-15T05:23:04;31.0;;;12.9;;
53674;SDS011;39574;50.534;8.500;2024-01-15T05:28:02;31.2;;;13.3;;
53674;SDS011;39574;50.534;8.500;2024-01-15T05:33:01;31.7;;;13.2;;
53674;SDS011;39574;50.534;8.500;2024-01-15T05:37:59;32.1;;;13.1;;
53674;SDS011;39574;50.534;8.500;2024-01-15T05:42:58;31.7;;;12.4;;
53674;SDS011;39574;50.534;8.500;2024-01-15T05:47:56;32.2;;;12.7;;
53674;SDS011;39574;50.534;8.500;2024-01-15T05:52:55;30.4;;;12.6;;
53674;SDS011;39574;50.534;8.500;2024-01-15T06:02:52;32.9;;;13.2;;
53674;SDS011;39574;50.534;8.500;2024-01-15T06:07:51;32.9;;;13.3;;
53674;SDS011;39574;50.534;8.500;2024-01-15T06:12:49;33.1;;;13.6;;
53674;SDS011;39574;50.534;8.500;2024-01-15T06:17:48;34.4;;;13.9;;
53674;SDS011;39574;50.534;8.500;2024-01-15T06:22:46;32.0;;;13.4;;
53674;SDS011;39574;50.534;8.500;2024-01-15T06:27:48;32.7;;;13.6;;
53674;SDS011;39574;50.534;8.500;2024-01-15T06:37:42;34.5;;;13.7;;
53674;SDS011;39574;50.534;8.500;2024-01-15T06:42:40;32.3;;;13.4;;
53674;SDS011;39574;50.534;8.500;2024-01-15T06:47:39;32.2;;;13.1;;
53674;SDS011;39574;50.534;8.500;2024-01-15T06:52:37;33.8;;;13.6;;
53674;SDS011;39574;50.534;8.500;2024-01-15T06:57:36;33.9;;;13.7;;
53674;SDS011;39574;50.534;8.500;2024-01-15T07:02:35;32.8;;;13.3;;
53674;SDS011;39574;50.534;8.500;2024-01-15T07:07:33;32.7;;;13.6;;
53674;SDS011;39574;50.534;8.500;2024-01-15T07:12:32;33.1;;;13.6;;
53674;SDS011;39574;50.534;8.500;2024-01-15T07:17:30;30.9;;;13.0;;
53674;SDS011;39574;50.534;8.500;2024-01-15T07:22:28;31.9;;;13.1;;
53674;SDS011;39574;50.534;8.500;2024-01-15T07:27:27;30.3;;;13.3;;
53674;SDS011;39574;50.534;8.500;2024-01-15T07:37:24;30.7;;;13.4;;
53674;SDS011;39574;50.534;8.500;2024-01-15T07:42:23;31.8;;;14.0;;
53674;SDS011;39574;50.534;8.500;2024-01-15T07:47:21;33.4;;;14.0;;
53674;SDS011;39574;50.534;8.500;2024-01-15T07:57:19;32.6;;;13.5;;
53674;SDS011;39574;50.534;8.500;2024-01-15T08:02:17;32.4;;;13.6;;
53674;SDS011;39574;50.534;8.500;2024-01-15T08:12:14;32.2;;;13.6;;
53674;SDS011;39574;50.534;8.500;2024-01-15T08:17:13;32.6;;;13.7;;
53674;SDS011;39574;50.534;8.500;2024-01-15T08:27:09;33.0;;;13.8;;
53674;SDS011;39574;50.534;8.500;2024-01-15T08:32:08;32.3;;;13.9;;
53674;SDS011;39574;50.534;8.500;2024-01-15T08:42:06;32.3;;;13.7;;
53674;SDS011;39574;50.534;8.500;2024-01-15T08:47:04;33.3;;;14.3;;
53674;SDS011;39574;50.534;8.500;2024-01-15T08:52:02;32.9;;;14.3;;
53674;SDS011;39574;50.534;8.500;2024-01-15T08:57:01;35.3;;;15.2;;
53674;SDS011;39574;50.534;8.500;2024-01-15T09:01:59;37.7;;;16.1;;
53674;SDS011;39574;50.534;8.500;2024-01-15T09:06:58;35.9;;;15.6;;
53674;SDS011;39574;50.534;8.500;2024-01-15T09:11:56;35.2;;;16.0;;
53674;SDS011;39574;50.534;8.500;2024-01-15T09:16:55;32.9;;;15.2;;
53674;SDS011;39574;50.534;8.500;2024-01-15T09:21:53;30.5;;;14.2;;
53674;SDS011;39574;50.534;8.500;2024-01-15T09:26:56;31.2;;;14.5;;
53674;SDS011;39574;50.534;8.500;2024-01-15T09:31:51;30.5;;;13.9;;
53674;SDS011;39574;50.534;8.500;2024-01-15T09:36:49;31.0;;;13.5;;
53674;SDS011;39574;50.534;8.500;2024-01-15T09:41:48;30.9;;;13.6;;
53674;SDS011;39574;50.534;8.500;2024-01-15T09:51:45;32.7;;;13.8;;
53674;SDS011;39574;50.534;8.500;2024-01-15T09:56:45;34.3;;;14.3;;
53674;SDS011;39574;50.534;8.500;2024-01-15T10:06:41;35.4;;;15.3;;
53674;SDS011;39574;50.534;8.500;2024-01-15T10:11:39;32.9;;;14.8;;
53674;SDS011;39574;50.534;8.500;2024-01-15T10:16:38;32.1;;;14.3;;
53674;SDS011;39574;50.534;8.500;2024-01-15T10:21:36;31.8;;;14.1;;
53674;SDS011;39574;50.534;8.500;2024-01-15T10:26:35;31.3;;;13.5;;
53674;SDS011;39574;50.534;8.500;2024-01-15T10:31:33;30.4;;;13.5;;
53674;SDS011;39574;50.534;8.500;2024-01-15T10:36:32;30.1;;;13.5;;
53674;SDS011;39574;50.534;8.500;2024-01-15T10:41:30;29.0;;;13.2;;
53674;SDS011;39574;50.534;8.500;2024-01-15T10:46:29;28.2;;;13.2;;
53674;SDS011;39574;50.534;8.500;2024-01-15T10:51:28;28.5;;;13.1;;
53674;SDS011;39574;50.534;8.500;2024-01-15T10:56:31;28.8;;;13.6;;
53674;SDS011;39574;50.534;8.500;2024-01-15T11:01:25;32.6;;;14.9;;
53674;SDS011;39574;50.534;8.500;2024-01-15T11:06:24;32.0;;;14.8;;
53674;SDS011;39574;50.534;8.500;2024-01-15T11:11:22;29.3;;;13.6;;
53674;SDS011;39574;50.534;8.500;2024-01-15T11:16:21;27.9;;;12.8;;
53674;SDS011;39574;50.534;8.500;2024-01-15T11:21:20;25.0;;;11.8;;
53674;SDS011;39574;50.534;8.500;2024-01-15T11:26:35;23.3;;;10.9;;
53674;SDS011;39574;50.534;8.500;2024-01-15T11:31:17;23.2;;;10.9;;
53674;SDS011;39574;50.534;8.500;2024-01-15T11:36:15;22.3;;;10.6;;
53674;SDS011;39574;50.534;8.500;2024-01-15T11:46:16;22.7;;;10.7;;
53674;SDS011;39574;50.534;8.500;2024-01-15T11:51:11;22.2;;;10.6;;
53674;SDS011;39574;50.534;8.500;2024-01-15T11:56:11;21.6;;;10.3;;
53674;SDS011;39574;50.534;8.500;2024-01-15T12:01:08;22.4;;;10.4;;
53674;SDS011;39574;50.534;8.500;2024-01-15T12:11:13;21.4;;;10.4;;
53674;SDS011;39574;50.534;8.500;2024-01-15T12:16:05;21.7;;;10.2;;
53674;SDS011;39574;50.534;8.500;2024-01-15T12:21:03;21.0;;;10.6;;
53674;SDS011;39574;50.534;8.500;2024-01-15T12:26:01;20.1;;;10.3;;
53674;SDS011;39574;50.534;8.500;2024-01-15T12:31:00;20.1;;;10.4;;
53674;SDS011;39574;50.534;8.500;2024-01-15T12:40:57;18.9;;;9.6;;
53674;SDS011;39574;50.534;8.500;2024-01-15T12:45:56;19.6;;;9.6;;
53674;SDS011;39574;50.534;8.500;2024-01-15T12:50:55;22.0;;;10.8;;
53674;SDS011;39574;50.534;8.500;2024-01-15T12:55:53;21.6;;;10.2;;
53674;SDS011;39574;50.534;8.500;2024-01-15T13:00:52;19.3;;;9.3;;
53674;SDS011;39574;50.534;8.500;2024-01-15T13:05:50;17.2;;;8.9;;
53674;SDS011;39574;50.534;8.500;2024-01-15T13:10:48;15.4;;;8.3;;
53674;SDS011;39574;50.534;8.500;2024-01-15T13:15:48;14.6;;;8.1;;
53674;SDS011;39574;50.534;8.500;2024-01-15T13:20:46;14.9;;;8.0;;
53674;SDS011;39574;50.534;8.500;2024-01-15T13:25:44;15.7;;;8.5;;
53674;SDS011;39574;50.534;8.500;2024-01-15T13:30:43;13.2;;;7.4;;
53674;SDS011;39574;50.534;8.500;2024-01-15T13:35:42;11.5;;;6.3;;
53674;SDS011;39574;50.534;8.500;2024-01-15T13:40:40;10.6;;;6.0;;
53674;SDS011;39574;50.534;8.500;2024-01-15T13:45:39;9.5;;;5.3;;
53674;SDS011;39574;50.534;8.500;2024-01-15T13:50:38;8.7;;;4.9;;
53674;SDS011;39574;50.534;8.500;2024-01-15T13:55:36;8.7;;;4.6;;
53674;SDS011;39574;50.534;8.500;2024-01-15T14:05:34;9.3;;;4.9;;
53674;SDS011;39574;50.534;8.500;2024-01-15T14:10:37;8.6;;;4.6;;
53674;SDS011;39574;50.534;8.500;2024-01-15T14:15:30;8.7;;;4.7;;
53674;SDS011;39574;50.534;8.500;2024-01-15T14:20:29;8.2;;;4.5;;
53674;SDS011;39574;50.534;8.500;2024-01-15T14:25:28;8.3;;;4.3;;
53674;SDS011;39574;50.534;8.500;2024-01-15T14:30:26;9.3;;;4.5;;
53674;SDS011;39574;50.534;8.500;2024-01-15T14:35:25;11.2;;;4.6;;
53674;SDS011;39574;50.534;8.500;2024-01-15T14:45:23;10.6;;;4.5;;
53674;SDS011;39574;50.534;8.500;2024-01-15T14:50:21;11.9;;;4.6;;
53674;SDS011;39574;50.534;8.500;2024-01-15T14:55:19;11.7;;;5.0;;
53674;SDS011;39574;50.534;8.500;2024-01-15T15:00:18;11.5;;;5.2;;
53674;SDS011;39574;50.534;8.500;2024-01-15T15:05:17;13.9;;;5.9;;
53674;SDS011;39574;50.534;8.500;2024-01-15T15:15:14;14.0;;;6.0;;
53674;SDS011;39574;50.534;8.500;2024-01-15T15:20:12;15.3;;;6.8;;
53674;SDS011;39574;50.534;8.500;2024-01-15T15:35:08;15.1;;;6.9;;
53674;SDS011;39574;50.534;8.500;2024-01-15T15:40:07;13.8;;;6.8;;
53674;SDS011;39574;50.534;8.500;2024-01-15T15:45:06;12.8;;;6.3;;
53674;SDS011;39574;50.534;8.500;2024-01-15T15:50:05;13.9;;;5.9;;
53674;SDS011;39574;50.534;8.500;2024-01-15T16:00:04;12.8;;;5.5;;
53674;SDS011;39574;50.534;8.500;2024-01-15T16:05:00;11.9;;;5.4;;
53674;SDS011;39574;50.534;8.500;2024-01-15T16:09:59;11.5;;;5.5;;
53674;SDS011;39574;50.534;8.500;2024-01-15T16:15:00;14.6;;;6.8;;
53674;SDS011;39574;50.534;8.500;2024-01-15T16:19:56;15.9;;;7.6;;
53674;SDS011;39574;50.534;8.500;2024-01-15T16:24:55;15.3;;;7.2;;
53674;SDS011;39574;50.534;8.500;2024-01-15T16:29:53;14.5;;;7.2;;
53674;SDS011;39574;50.534;8.500;2024-01-15T16:34:51;13.1;;;6.6;;
53674;SDS011;39574;50.534;8.500;2024-01-15T16:39:50;13.6;;;6.8;;
53674;SDS011;39574;50.534;8.500;2024-01-15T16:44:49;16.6;;;7.4;;
53674;SDS011;39574;50.534;8.500;2024-01-15T16:49:48;16.0;;;6.9;;
53674;SDS011;39574;50.534;8.500;2024-01-15T16:54:46;14.7;;;6.7;;
53674;SDS011;39574;50.534;8.500;2024-01-15T16:59:44;12.8;;;6.4;;
53674;SDS011;39574;50.534;8.500;2024-01-15T17:04:48;12.8;;;6.7;;
53674;SDS011;39574;50.534;8.500;2024-01-15T17:14:40;11.8;;;6.5;;
53674;SDS011;39574;50.534;8.500;2024-01-15T17:19:40;11.6;;;6.3;;
53674;SDS011;39574;50.534;8.500;2024-01-15T17:24:37;11.7;;;5.9;;
53674;SDS011;39574;50.534;8.500;2024-01-15T17:29:36;11.0;;;5.6;;
53674;SDS011;39574;50.534;8.500;2024-01-15T17:34:35;10.7;;;5.7;;
53674;SDS011;39574;50.534;8.500;2024-01-15T17:39:34;11.0;;;5.7;;
53674;SDS011;39574;50.534;8.500;2024-01-15T17:44:33;9.6;;;5.2;;
53674;SDS011;39574;50.534;8.500;2024-01-15T17:49:31;9.7;;;5.2;;
53674;SDS011;39574;50.534;8.500;2024-01-15T17:54:29;10.1;;;5.4;;
53674;SDS011;39574;50.534;8.500;2024-01-15T17:59:28;10.1;;;5.5;;
53674;SDS011;39574;50.534;8.500;2024-01-15T18:04:27;13.8;;;6.8;;
53674;SDS011;39574;50.534;8.500;2024-01-15T18:09:26;14.9;;;7.5;;
53674;SDS011;39574;50.534;8.500;2024-01-15T18:14:23;14.7;;;7.6;;
53674;SDS011;39574;50.534;8.500;2024-01-15T18:19:22;14.8;;;7.8;;
53674;SDS011;39574;50.534;8.500;2024-01-15T18:29:20;12.6;;;7.2;;
53674;SDS011;39574;50.534;8.500;2024-01-15T18:34:18;10.6;;;5.8;;
53674;SDS011;39574;50.534;8.500;2024-01-15T18:44:16;10.3;;;4.7;;
53674;SDS011;39574;50.534;8.500;2024-01-15T18:49:14;8.7;;;4.0;;
53674;SDS011;39574;50.534;8.500;2024-01-15T18:54:12;8.3;;;3.8;;
53674;SDS011;39574;50.534;8.500;2024-01-15T18:59:11;8.1;;;4.0;;
53674;SDS011;39574;50.534;8.500;2024-01-15T19:04:09;8.5;;;4.2;;
53674;SDS011;39574;50.534;8.500;2024-01-15T19:09:08;9.0;;;4.5;;
53674;SDS011;39574;50.534;8.500;2024-01-15T19:14:07;9.8;;;4.8;;
53674;SDS011;39574;50.534;8.500;2024-01-15T19:19:06;9.6;;;4.9;;
53674;SDS011;39574;50.534;8.500;2024-01-15T19:24:04;9.7;;;4.9;;
53674;SDS011;39574;50.534;8.500;2024-01-15T19:29:02;11.1;;;5.1;;
53674;SDS011;39574;50.534;8.500;2024-01-15T19:39:00;10.6;;;5.2;;
53674;SDS011;39574;50.534;8.500;2024-01-15T19:43:58;12.0;;;5.3;;
53674;SDS011;39574;50.534;8.500;2024-01-15T19:48:58;12.9;;;5.4;;
53674;SDS011;39574;50.534;8.500;2024-01-15T19:54:00;12.3;;;5.5;;
53674;SDS011;39574;50.534;8.500;2024-01-15T19:58:55;13.4;;;5.9;;
53674;SDS011;39574;50.534;8.500;2024-01-15T20:03:53;14.3;;;5.8;;
53674;SDS011;39574;50.534;8.500;2024-01-15T20:08:51;15.7;;;6.3;;
53674;SDS011;39574;50.534;8.500;2024-01-15T20:13:50;14.5;;;6.2;;
53674;SDS011;39574;50.534;8.500;2024-01-15T20:18:49;14.2;;;5.8;;
53674;SDS011;39574;50.534;8.500;2024-01-15T20:23:47;13.9;;;5.8;;
53674;SDS011;39574;50.534;8.500;2024-01-15T20:28:46;13.6;;;5.3;;
53674;SDS011;39574;50.534;8.500;2024-01-15T20:33:44;14.4;;;5.6;;
53674;SDS011;39574;50.534;8.500;2024-01-15T20:38:48;14.2;;;5.4;;
53674;SDS011;39574;50.534;8.500;2024-01-15T20:43:41;13.1;;;5.0;;
53674;SDS011;39574;50.534;8.500;2024-01-15T20:48:40;12.1;;;4.9;;
53674;SDS011;39574;50.534;8.500;2024-01-15T20:53:39;12.7;;;4.8;;
53674;SDS011;39574;50.534;8.500;2024-01-15T20:58:38;14.0;;;5.0;;
53674;SDS011;39574;50.534;8.500;2024-01-15T21:03:36;12.9;;;4.8;;
53674;SDS011;39574;50.534;8.500;2024-01-15T21:08:35;12.2;;;4.7;;
53674;SDS011;39574;50.534;8.500;2024-01-15T21:13:33;11.4;;;4.5;;
53674;SDS011;39574;50.534;8.500;2024-01-15T21:18:32;10.4;;;4.4;;
53674;SDS011;39574;50.534;8.500;2024-01-15T21:23:31;10.2;;;4.4;;
53674;SDS011;39574;50.534;8.500;2024-01-15T21:28:30;10.3;;;4.4;;
53674;SDS011;39574;50.534;8.500;2024-01-15T21:38:26;10.2;;;4.4;;
53674;SDS011;39574;50.534;8.500;2024-01-15T21:43:25;10.5;;;4.5;;
53674;SDS011;39574;50.534;8.500;2024-01-15T21:48:24;10.7;;;4.5;;
53674;SDS011;39574;50.534;8.500;2024-01-15T21:53:22;11.9;;;4.7;;
53674;SDS011;39574;50.534;8.500;2024-01-15T21:58:21;11.7;;;4.5;;
53674;SDS011;39574;50.534;8.500;2024-01-15T22:03:19;12.7;;;4.6;;
53674;SDS011;39574;50.534;8.500;2024-01-15T22:08:18;12.7;;;4.6;;
53674;SDS011;39574;50.534;8.500;2024-01-15T22:13:17;11.8;;;4.5;;
53674;SDS011;39574;50.534;8.500;2024-01-15T22:18:20;11.7;;;4.3;;
53674;SDS011;39574;50.534;8.500;2024-01-15T22:23:14;11.9;;;4.4;;
53674;SDS011;39574;50.534;8.500;2024-01-15T22:28:17;11.2;;;4.4;;
53674;SDS011;39574;50.534;8.500;2024-01-15T22:33:12;12.0;;;4.5;;
53674;SDS011;39574;50.534;8.500;2024-01-15T22:38:10;13.3;;;4.3;;
53674;SDS011;39574;50.534;8.500;2024-01-15T22:43:09;13.3;;;4.5;;
53674;SDS011;39574;50.534;8.500;2024-01-15T22:48:07;13.6;;;4.7;;
53674;SDS011;39574;50.534;8.500;2024-01-15T22:53:06;15.0;;;5.1;;
53674;SDS011;39574;50.534;8.500;2024-01-15T22:58:05;18.4;;;7.3;;
53674;SDS011;39574;50.534;8.500;2024-01-15T23:03:04;17.6;;;7.0;;
53674;SDS011;39574;50.534;8.500;2024-01-15T23:13:00;15.7;;;6.3;;
53674;SDS011;39574;50.534;8.500;2024-01-15T23:17:59;14.2;;;5.9;;
53674;SDS011;39574;50.534;8.500;2024-01-15T23:22:57;14.6;;;5.6;;
53674;SDS011;39574;50.534;8.500;2024-01-15T23:27:56;14.4;;;5.6;;
53674;SDS011;39574;50.534;8.500;2024-01-15T23:32:56;13.7;;;5.1;;
53674;SDS011;39574;50.534;8.500;2024-01-15T23:37:54;12.2;;;4.8;;
53674;SDS011;39574;50.534;8.500;2024-01-15T23:42:53;11.6;;;4.4;;
53674;SDS011;39574;50.534;8.500;2024-01-15T23:47:51;10.6;;;4.1;;
53674;SDS011;39574;50.534;8.500;2024-01-15T23:52:50;11.5;;;4.1;;
53674;SDS011;39574;50.534;8.500;2024-01-15T23:57:48;10.9;;;4.1;;
